sensor_id;sensor_type;location;lat;lon;timestamp;P1;durP1;ratioP1;P2;durP2;ratioP2
76807;SDS011;65758;45.458;11.062;2023-06-10T00:00:44;9.50;;;8.50;;
76807;SDS011;65758;45.458;11.062;2023-06-10T00:03:11;9.70;;;7.90;;
76807;SDS011;65758;45.458;11.062;2023-06-10T00:05:39;8.70;;;7.40;;
76807;SDS011;65758;45.458;11.062;2023-06-10T00:08:06;8.40;;;7.60;;
76807;SDS011;65758;45.458;11.062;2023-06-10T00:10:37;9.00;;;8.10;;
76807;SDS011;65758;45.458;11.062;2023-06-10T00:13:05;8.30;;;7.50;;
76807;SDS011;65758;45.458;11.062;2023-06-10T00:19:57;7.90;;;7.20;;
76807;SDS011;65758;45.458;11.062;2023-06-10T00:22:24;8.10;;;6.80;;
76807;SDS011;65758;45.458;11.062;2023-06-10T00:24:55;8.50;;;7.30;;
76807;SDS011;65758;45.458;11.062;2023-06-10T00:27:25;8.20;;;6.40;;
76807;SDS011;65758;45.458;11.062;2023-06-10T00:29:59;7.70;;;7.00;;
76807;SDS011;65758;45.458;11.062;2023-06-10T00:32:26;8.70;;;6.00;;
76807;SDS011;65758;45.458;11.062;2023-06-10T00:34:54;9.20;;;6.80;;
76807;SDS011;65758;45.458;11.062;2023-06-10T00:37:21;8.00;;;7.10;;
76807;SDS011;65758;45.458;11.062;2023-06-10T00:39:49;7.40;;;6.70;;
76807;SDS011;65758;45.458;11.062;2023-06-10T00:42:16;8.40;;;6.10;;
76807;SDS011;65758;45.458;11.062;2023-06-10T00:44:43;6.90;;;6.20;;
76807;SDS011;65758;45.458;11.062;2023-06-10T00:47:09;9.40;;;5.90;;
76807;SDS011;65758;45.458;11.062;2023-06-10T00:49:37;9.00;;;5.90;;
76807;SDS011;65758;45.458;11.062;2023-06-10T00:52:04;7.30;;;6.40;;
76807;SDS011;65758;45.458;11.062;2023-06-10T00:54:33;8.40;;;6.70;;
76807;SDS011;65758;45.458;11.062;2023-06-10T00:57:01;7.80;;;6.90;;
76807;SDS011;65758;45.458;11.062;2023-06-10T00:59:28;7.50;;;6.80;;
76807;SDS011;65758;45.458;11.062;2023-06-10T01:01:56;7.70;;;6.90;;
76807;SDS011;65758;45.458;11.062;2023-06-10T01:04:24;8.40;;;7.30;;
76807;SDS011;65758;45.458;11.062;2023-06-10T01:09:37;7.80;;;6.00;;
76807;SDS011;65758;45.458;11.062;2023-06-10T01:12:11;6.50;;;5.90;;
76807;SDS011;65758;45.458;11.062;2023-06-10T01:14:46;8.90;;;6.90;;
76807;SDS011;65758;45.458;11.062;2023-06-10T01:17:15;6.80;;;6.20;;
76807;SDS011;65758;45.458;11.062;2023-06-10T01:19:43;7.00;;;6.30;;
76807;SDS011;65758;45.458;11.062;2023-06-10T01:22:10;7.00;;;6.40;;
76807;SDS011;65758;45.458;11.062;2023-06-10T01:24:43;6.60;;;6.00;;
76807;SDS011;65758;45.458;11.062;2023-06-10T01:27:12;6.70;;;6.00;;
76807;SDS011;65758;45.458;11.062;2023-06-10T01:29:43;7.50;;;6.40;;
76807;SDS011;65758;45.458;11.062;2023-06-10T01:32:17;6.60;;;5.90;;
76807;SDS011;65758;45.458;11.062;2023-06-10T01:34:48;8.10;;;6.50;;
76807;SDS011;65758;45.458;11.062;2023-06-10T01:37:17;7.60;;;6.40;;
76807;SDS011;65758;45.458;11.062;2023-06-10T01:39:48;6.30;;;5.70;;
76807;SDS011;65758;45.458;11.062;2023-06-10T01:42:16;7.60;;;6.50;;
76807;SDS011;65758;45.458;11.062;2023-06-10T01:44:44;8.80;;;6.30;;
76807;SDS011;65758;45.458;11.062;2023-06-10T01:47:10;8.10;;;6.00;;
76807;SDS011;65758;45.458;11.062;2023-06-10T01:49:37;7.30;;;6.50;;
76807;SDS011;65758;45.458;11.062;2023-06-10T01:52:06;9.00;;;6.90;;
76807;SDS011;65758;45.458;11.062;2023-06-10T01:54:33;7.70;;;6.70;;
76807;SDS011;65758;45.458;11.062;2023-06-10T01:57:04;7.30;;;6.60;;
76807;SDS011;65758;45.458;11.062;2023-06-10T01:59:32;7.90;;;6.50;;
76807;SDS011;65758;45.458;11.062;2023-06-10T02:01:59;6.90;;;6.20;;
76807;SDS011;65758;45.458;11.062;2023-06-10T02:04:26;8.40;;;6.30;;
76807;SDS011;65758;45.458;11.062;2023-06-10T02:06:53;7.00;;;6.40;;
76807;SDS011;65758;45.458;11.062;2023-06-10T02:09:20;7.50;;;6.80;;
76807;SDS011;65758;45.458;11.062;2023-06-10T02:11:46;9.70;;;7.50;;
76807;SDS011;65758;45.458;11.062;2023-06-10T02:14:13;10.00;;;7.30;;
76807;SDS011;65758;45.458;11.062;2023-06-10T02:16:41;8.40;;;7.30;;
76807;SDS011;65758;45.458;11.062;2023-06-10T02:19:08;9.50;;;7.20;;
76807;SDS011;65758;45.458;11.062;2023-06-10T02:21:35;9.20;;;7.90;;
76807;SDS011;65758;45.458;11.062;2023-06-10T02:24:02;7.90;;;7.00;;
76807;SDS011;65758;45.458;11.062;2023-06-10T02:26:29;8.50;;;7.70;;
76807;SDS011;65758;45.458;11.062;2023-06-10T02:28:58;8.70;;;7.80;;
76807;SDS011;65758;45.458;11.062;2023-06-10T02:31:26;7.40;;;6.70;;
76807;SDS011;65758;45.458;11.062;2023-06-10T02:33:55;8.30;;;7.50;;
76807;SDS011;65758;45.458;11.062;2023-06-10T02:36:23;8.40;;;7.20;;
76807;SDS011;65758;45.458;11.062;2023-06-10T02:38:50;8.90;;;7.20;;
76807;SDS011;65758;45.458;11.062;2023-06-10T02:41:18;10.50;;;7.70;;
76807;SDS011;65758;45.458;11.062;2023-06-10T02:43:45;8.80;;;7.80;;
76807;SDS011;65758;45.458;11.062;2023-06-10T02:46:12;11.10;;;8.10;;
76807;SDS011;65758;45.458;11.062;2023-06-10T02:48:40;9.00;;;8.20;;
76807;SDS011;65758;45.458;11.062;2023-06-10T02:53:42;9.60;;;7.00;;
76807;SDS011;65758;45.458;11.062;2023-06-10T02:56:10;9.10;;;7.70;;
76807;SDS011;65758;45.458;11.062;2023-06-10T02:58:39;8.40;;;7.50;;
76807;SDS011;65758;45.458;11.062;2023-06-10T03:01:06;8.30;;;7.50;;
76807;SDS011;65758;45.458;11.062;2023-06-10T03:03:40;9.10;;;7.50;;
76807;SDS011;65758;45.458;11.062;2023-06-10T03:06:11;8.60;;;7.80;;
76807;SDS011;65758;45.458;11.062;2023-06-10T03:08:39;8.30;;;7.50;;
76807;SDS011;65758;45.458;11.062;2023-06-10T03:11:09;8.60;;;7.80;;
76807;SDS011;65758;45.458;11.062;2023-06-10T03:13:38;10.50;;;8.20;;
76807;SDS011;65758;45.458;11.062;2023-06-10T03:16:08;8.90;;;8.00;;
76807;SDS011;65758;45.458;11.062;2023-06-10T03:18:36;9.00;;;8.10;;
76807;SDS011;65758;45.458;11.062;2023-06-10T03:21:03;10.00;;;8.70;;
76807;SDS011;65758;45.458;11.062;2023-06-10T03:23:30;9.60;;;8.70;;
76807;SDS011;65758;45.458;11.062;2023-06-10T03:25:57;10.60;;;9.00;;
76807;SDS011;65758;45.458;11.062;2023-06-10T03:28:24;9.40;;;8.30;;
76807;SDS011;65758;45.458;11.062;2023-06-10T03:30:52;9.90;;;8.10;;
76807;SDS011;65758;45.458;11.062;2023-06-10T03:33:20;8.60;;;7.70;;
76807;SDS011;65758;45.458;11.062;2023-06-10T03:35:48;10.00;;;8.10;;
76807;SDS011;65758;45.458;11.062;2023-06-10T03:38:15;13.40;;;8.60;;
76807;SDS011;65758;45.458;11.062;2023-06-10T03:40:42;9.20;;;8.10;;
76807;SDS011;65758;45.458;11.062;2023-06-10T03:43:09;10.70;;;8.70;;
76807;SDS011;65758;45.458;11.062;2023-06-10T03:45:36;11.30;;;8.20;;
76807;SDS011;65758;45.458;11.062;2023-06-10T03:48:03;9.00;;;7.90;;
76807;SDS011;65758;45.458;11.062;2023-06-10T03:50:38;10.80;;;8.80;;
76807;SDS011;65758;45.458;11.062;2023-06-10T03:53:06;9.90;;;8.90;;
76807;SDS011;65758;45.458;11.062;2023-06-10T03:55:34;8.90;;;8.00;;
76807;SDS011;65758;45.458;11.062;2023-06-10T03:58:01;10.60;;;8.20;;
76807;SDS011;65758;45.458;11.062;2023-06-10T04:00:28;9.60;;;8.40;;
76807;SDS011;65758;45.458;11.062;2023-06-10T04:02:56;10.80;;;8.60;;
76807;SDS011;65758;45.458;11.062;2023-06-10T04:05:31;9.30;;;8.40;;
76807;SDS011;65758;45.458;11.062;2023-06-10T04:07:57;9.70;;;8.70;;
76807;SDS011;65758;45.458;11.062;2023-06-10T04:10:24;10.40;;;9.30;;
76807;SDS011;65758;45.458;11.062;2023-06-10T04:12:53;13.40;;;9.00;;
76807;SDS011;65758;45.458;11.062;2023-06-10T04:15:22;10.70;;;9.60;;
76807;SDS011;65758;45.458;11.062;2023-06-10T04:17:49;10.90;;;9.30;;
76807;SDS011;65758;45.458;11.062;2023-06-10T04:20:17;11.10;;;8.70;;
76807;SDS011;65758;45.458;11.062;2023-06-10T04:22:45;11.30;;;9.20;;
76807;SDS011;65758;45.458;11.062;2023-06-10T04:25:14;12.20;;;10.00;;
76807;SDS011;65758;45.458;11.062;2023-06-10T04:27:41;11.20;;;9.80;;
76807;SDS011;65758;45.458;11.062;2023-06-10T04:30:09;12.30;;;9.40;;
76807;SDS011;65758;45.458;11.062;2023-06-10T04:32:37;10.90;;;8.40;;
76807;SDS011;65758;45.458;11.062;2023-06-10T04:35:06;10.90;;;9.80;;
76807;SDS011;65758;45.458;11.062;2023-06-10T04:37:35;13.50;;;9.80;;
76807;SDS011;65758;45.458;11.062;2023-06-10T04:40:02;11.10;;;9.60;;
76807;SDS011;65758;45.458;11.062;2023-06-10T04:42:30;12.00;;;10.60;;
76807;SDS011;65758;45.458;11.062;2023-06-10T04:44:57;11.30;;;9.50;;
76807;SDS011;65758;45.458;11.062;2023-06-10T04:55:52;13.00;;;10.30;;
76807;SDS011;65758;45.458;11.062;2023-06-10T04:58:19;12.60;;;10.30;;
76807;SDS011;65758;45.458;11.062;2023-06-10T05:05:00;10.20;;;8.50;;
76807;SDS011;65758;45.458;11.062;2023-06-10T05:07:26;11.90;;;9.40;;
76807;SDS011;65758;45.458;11.062;2023-06-10T05:09:53;12.40;;;10.40;;
76807;SDS011;65758;45.458;11.062;2023-06-10T05:12:21;17.10;;;10.50;;
76807;SDS011;65758;45.458;11.062;2023-06-10T05:14:48;11.30;;;10.10;;
76807;SDS011;65758;45.458;11.062;2023-06-10T05:17:15;14.30;;;10.40;;
76807;SDS011;65758;45.458;11.062;2023-06-10T05:23:56;11.20;;;9.90;;
76807;SDS011;65758;45.458;11.062;2023-06-10T05:26:23;11.70;;;10.20;;
76807;SDS011;65758;45.458;11.062;2023-06-10T05:28:50;13.10;;;10.30;;
76807;SDS011;65758;45.458;11.062;2023-06-10T05:35:37;12.40;;;10.80;;
76807;SDS011;65758;45.458;11.062;2023-06-10T05:38:03;12.10;;;10.60;;
76807;SDS011;65758;45.458;11.062;2023-06-10T05:40:30;13.00;;;10.80;;
76807;SDS011;65758;45.458;11.062;2023-06-10T05:42:57;12.60;;;10.40;;
76807;SDS011;65758;45.458;11.062;2023-06-10T05:45:24;14.50;;;11.20;;
76807;SDS011;65758;45.458;11.062;2023-06-10T05:47:51;11.50;;;10.30;;
76807;SDS011;65758;45.458;11.062;2023-06-10T05:50:18;13.90;;;11.70;;
76807;SDS011;65758;45.458;11.062;2023-06-10T05:56:47;13.20;;;10.80;;
76807;SDS011;65758;45.458;11.062;2023-06-10T05:59:14;14.50;;;10.80;;
76807;SDS011;65758;45.458;11.062;2023-06-10T06:01:41;14.70;;;11.00;;
76807;SDS011;65758;45.458;11.062;2023-06-10T06:04:08;12.50;;;11.20;;
76807;SDS011;65758;45.458;11.062;2023-06-10T06:06:35;13.50;;;11.80;;
76807;SDS011;65758;45.458;11.062;2023-06-10T06:09:02;12.70;;;9.80;;
76807;SDS011;65758;45.458;11.062;2023-06-10T06:15:50;11.60;;;10.20;;
76807;SDS011;65758;45.458;11.062;2023-06-10T06:18:17;11.80;;;9.80;;
76807;SDS011;65758;45.458;11.062;2023-06-10T06:20:45;12.20;;;10.80;;
76807;SDS011;65758;45.458;11.062;2023-06-10T06:23:12;12.90;;;10.80;;
76807;SDS011;65758;45.458;11.062;2023-06-10T06:25:39;14.20;;;11.30;;
76807;SDS011;65758;45.458;11.062;2023-06-10T06:32:33;11.20;;;10.00;;
76807;SDS011;65758;45.458;11.062;2023-06-10T06:35:00;10.40;;;9.40;;
76807;SDS011;65758;45.458;11.062;2023-06-10T06:37:27;10.00;;;8.60;;
76807;SDS011;65758;45.458;11.062;2023-06-10T06:40:02;11.20;;;10.10;;
76807;SDS011;65758;45.458;11.062;2023-06-10T06:42:30;11.40;;;10.30;;
76807;SDS011;65758;45.458;11.062;2023-06-10T06:45:08;10.40;;;8.80;;
76807;SDS011;65758;45.458;11.062;2023-06-10T06:47:36;12.10;;;10.00;;
76807;SDS011;65758;45.458;11.062;2023-06-10T06:50:03;12.60;;;10.40;;
76807;SDS011;65758;45.458;11.062;2023-06-10T06:52:30;11.70;;;10.20;;
76807;SDS011;65758;45.458;11.062;2023-06-10T06:54:57;11.50;;;9.10;;
76807;SDS011;65758;45.458;11.062;2023-06-10T06:57:24;13.00;;;11.50;;
76807;SDS011;65758;45.458;11.062;2023-06-10T06:59:51;11.70;;;10.50;;
76807;SDS011;65758;45.458;11.062;2023-06-10T07:02:18;11.80;;;10.40;;
76807;SDS011;65758;45.458;11.062;2023-06-10T07:04:45;12.10;;;9.40;;
76807;SDS011;65758;45.458;11.062;2023-06-10T07:07:15;11.60;;;9.80;;
76807;SDS011;65758;45.458;11.062;2023-06-10T07:09:42;9.70;;;8.40;;
76807;SDS011;65758;45.458;11.062;2023-06-10T07:12:09;12.60;;;10.30;;
76807;SDS011;65758;45.458;11.062;2023-06-10T07:14:36;12.80;;;9.80;;
76807;SDS011;65758;45.458;11.062;2023-06-10T07:17:03;15.60;;;11.40;;
76807;SDS011;65758;45.458;11.062;2023-06-10T07:19:30;11.90;;;10.40;;
76807;SDS011;65758;45.458;11.062;2023-06-10T07:21:57;11.30;;;10.00;;
76807;SDS011;65758;45.458;11.062;2023-06-10T07:24:24;12.40;;;10.20;;
76807;SDS011;65758;45.458;11.062;2023-06-10T07:26:51;12.90;;;10.00;;
76807;SDS011;65758;45.458;11.062;2023-06-10T07:29:18;11.50;;;9.90;;
76807;SDS011;65758;45.458;11.062;2023-06-10T07:31:45;12.40;;;10.70;;
76807;SDS011;65758;45.458;11.062;2023-06-10T07:34:11;10.60;;;9.20;;
76807;SDS011;65758;45.458;11.062;2023-06-10T07:36:38;10.20;;;8.90;;
76807;SDS011;65758;45.458;11.062;2023-06-10T07:39:05;13.10;;;11.40;;
76807;SDS011;65758;45.458;11.062;2023-06-10T07:41:33;14.20;;;10.70;;
76807;SDS011;65758;45.458;11.062;2023-06-10T07:44:00;12.90;;;11.00;;
76807;SDS011;65758;45.458;11.062;2023-06-10T07:46:27;16.70;;;13.40;;
76807;SDS011;65758;45.458;11.062;2023-06-10T07:48:55;14.30;;;12.60;;
76807;SDS011;65758;45.458;11.062;2023-06-10T07:51:21;17.00;;;14.40;;
76807;SDS011;65758;45.458;11.062;2023-06-10T07:53:49;13.60;;;12.20;;
76807;SDS011;65758;45.458;11.062;2023-06-10T07:56:16;15.60;;;12.70;;
76807;SDS011;65758;45.458;11.062;2023-06-10T07:58:42;18.70;;;15.10;;
76807;SDS011;65758;45.458;11.062;2023-06-10T08:01:09;16.30;;;13.70;;
76807;SDS011;65758;45.458;11.062;2023-06-10T08:03:36;17.40;;;15.30;;
76807;SDS011;65758;45.458;11.062;2023-06-10T08:06:03;15.60;;;12.30;;
76807;SDS011;65758;45.458;11.062;2023-06-10T08:08:33;20.00;;;15.20;;
76807;SDS011;65758;45.458;11.062;2023-06-10T08:11:01;18.90;;;16.00;;
76807;SDS011;65758;45.458;11.062;2023-06-10T08:13:28;20.10;;;14.50;;
76807;SDS011;65758;45.458;11.062;2023-06-10T08:15:55;20.10;;;14.90;;
76807;SDS011;65758;45.458;11.062;2023-06-10T08:18:21;18.30;;;14.30;;
76807;SDS011;65758;45.458;11.062;2023-06-10T08:20:48;19.40;;;15.20;;
76807;SDS011;65758;45.458;11.062;2023-06-10T08:23:15;20.90;;;18.20;;
76807;SDS011;65758;45.458;11.062;2023-06-10T08:25:42;20.10;;;16.40;;
76807;SDS011;65758;45.458;11.062;2023-06-10T08:28:09;16.20;;;14.30;;
76807;SDS011;65758;45.458;11.062;2023-06-10T08:30:36;20.50;;;15.50;;
76807;SDS011;65758;45.458;11.062;2023-06-10T08:33:03;19.60;;;16.70;;
76807;SDS011;65758;45.458;11.062;2023-06-10T08:35:30;19.60;;;15.70;;
76807;SDS011;65758;45.458;11.062;2023-06-10T08:37:57;22.00;;;18.60;;
76807;SDS011;65758;45.458;11.062;2023-06-10T08:40:24;20.80;;;17.80;;
76807;SDS011;65758;45.458;11.062;2023-06-10T08:43:00;21.90;;;17.30;;
76807;SDS011;65758;45.458;11.062;2023-06-10T08:45:35;24.80;;;18.80;;
76807;SDS011;65758;45.458;11.062;2023-06-10T08:48:03;24.90;;;21.60;;
76807;SDS011;65758;45.458;11.062;2023-06-10T08:50:36;25.40;;;19.80;;
76807;SDS011;65758;45.458;11.062;2023-06-10T08:53:07;24.40;;;17.40;;
76807;SDS011;65758;45.458;11.062;2023-06-10T08:55:37;23.90;;;18.80;;
76807;SDS011;65758;45.458;11.062;2023-06-10T08:58:08;25.20;;;20.70;;
76807;SDS011;65758;45.458;11.062;2023-06-10T09:00:35;28.20;;;22.60;;
76807;SDS011;65758;45.458;11.062;2023-06-10T09:07:23;23.40;;;20.10;;
76807;SDS011;65758;45.458;11.062;2023-06-10T09:09:51;20.20;;;16.70;;
76807;SDS011;65758;45.458;11.062;2023-06-10T09:16:39;21.90;;;17.00;;
76807;SDS011;65758;45.458;11.062;2023-06-10T09:19:07;20.20;;;16.10;;
76807;SDS011;65758;45.458;11.062;2023-06-10T09:21:37;19.70;;;16.00;;
76807;SDS011;65758;45.458;11.062;2023-06-10T09:24:05;20.80;;;14.80;;
76807;SDS011;65758;45.458;11.062;2023-06-10T09:26:32;16.30;;;13.20;;
76807;SDS011;65758;45.458;11.062;2023-06-10T09:29:06;14.30;;;12.10;;
76807;SDS011;65758;45.458;11.062;2023-06-10T09:31:38;16.30;;;11.00;;
76807;SDS011;65758;45.458;11.062;2023-06-10T09:36:38;12.90;;;9.30;;
76807;SDS011;65758;45.458;11.062;2023-06-10T09:39:16;12.90;;;9.80;;
76807;SDS011;65758;45.458;11.062;2023-06-10T09:41:44;11.60;;;8.40;;
76807;SDS011;65758;45.458;11.062;2023-06-10T09:44:16;12.50;;;9.00;;
76807;SDS011;65758;45.458;11.062;2023-06-10T09:46:45;10.40;;;7.20;;
76807;SDS011;65758;45.458;11.062;2023-06-10T09:49:13;12.60;;;7.80;;
76807;SDS011;65758;45.458;11.062;2023-06-10T09:51:53;8.60;;;6.70;;
76807;SDS011;65758;45.458;11.062;2023-06-10T09:58:49;7.50;;;5.50;;
76807;SDS011;65758;45.458;11.062;2023-06-10T10:05:33;6.70;;;4.70;;
76807;SDS011;65758;45.458;11.062;2023-06-10T10:12:20;6.30;;;4.40;;
76807;SDS011;65758;45.458;11.062;2023-06-10T10:14:48;5.70;;;4.30;;
76807;SDS011;65758;45.458;11.062;2023-06-10T10:17:16;6.10;;;3.90;;
76807;SDS011;65758;45.458;11.062;2023-06-10T10:19:48;7.60;;;4.10;;
76807;SDS011;65758;45.458;11.062;2023-06-10T10:22:22;5.30;;;3.90;;
76807;SDS011;65758;45.458;11.062;2023-06-10T10:36:04;4.20;;;3.00;;
76807;SDS011;65758;45.458;11.062;2023-06-10T10:38:34;6.70;;;3.40;;
76807;SDS011;65758;45.458;11.062;2023-06-10T10:41:02;4.10;;;3.30;;
76807;SDS011;65758;45.458;11.062;2023-06-10T10:43:31;5.00;;;2.70;;
76807;SDS011;65758;45.458;11.062;2023-06-10T10:46:00;4.70;;;2.80;;
76807;SDS011;65758;45.458;11.062;2023-06-10T10:48:33;3.90;;;2.50;;
76807;SDS011;65758;45.458;11.062;2023-06-10T10:51:04;5.10;;;2.90;;
76807;SDS011;65758;45.458;11.062;2023-06-10T10:53:31;5.70;;;2.80;;
76807;SDS011;65758;45.458;11.062;2023-06-10T11:00:11;4.40;;;2.70;;
76807;SDS011;65758;45.458;11.062;2023-06-10T11:02:43;5.10;;;3.20;;
76807;SDS011;65758;45.458;11.062;2023-06-10T11:05:16;5.30;;;3.40;;
76807;SDS011;65758;45.458;11.062;2023-06-10T11:07:53;6.40;;;3.30;;
76807;SDS011;65758;45.458;11.062;2023-06-10T11:10:30;4.50;;;3.30;;
76807;SDS011;65758;45.458;11.062;2023-06-10T11:12:59;4.20;;;3.10;;
76807;SDS011;65758;45.458;11.062;2023-06-10T11:15:28;4.00;;;2.80;;
76807;SDS011;65758;45.458;11.062;2023-06-10T11:18:09;6.40;;;3.10;;
76807;SDS011;65758;45.458;11.062;2023-06-10T11:31:27;7.00;;;3.40;;
76807;SDS011;65758;45.458;11.062;2023-06-10T11:33:57;5.30;;;3.00;;
76807;SDS011;65758;45.458;11.062;2023-06-10T11:36:26;4.90;;;4.00;;
76807;SDS011;65758;45.458;11.062;2023-06-10T11:39:01;5.30;;;3.90;;
76807;SDS011;65758;45.458;11.062;2023-06-10T11:41:30;6.20;;;4.40;;
76807;SDS011;65758;45.458;11.062;2023-06-10T11:46:36;5.00;;;3.70;;
76807;SDS011;65758;45.458;11.062;2023-06-10T11:49:04;7.00;;;4.40;;
76807;SDS011;65758;45.458;11.062;2023-06-10T11:51:33;5.90;;;3.40;;
76807;SDS011;65758;45.458;11.062;2023-06-10T11:54:02;5.00;;;3.60;;
76807;SDS011;65758;45.458;11.062;2023-06-10T11:56:30;5.40;;;3.40;;
76807;SDS011;65758;45.458;11.062;2023-06-10T11:58:59;5.80;;;4.10;;
76807;SDS011;65758;45.458;11.062;2023-06-10T12:01:31;5.30;;;4.50;;
76807;SDS011;65758;45.458;11.062;2023-06-10T12:06:50;6.80;;;4.50;;
76807;SDS011;65758;45.458;11.062;2023-06-10T12:11:57;6.50;;;3.70;;
76807;SDS011;65758;45.458;11.062;2023-06-10T12:17:21;9.50;;;4.10;;
76807;SDS011;65758;45.458;11.062;2023-06-10T12:19:58;5.10;;;3.70;;
76807;SDS011;65758;45.458;11.062;2023-06-10T12:22:27;7.10;;;4.00;;
76807;SDS011;65758;45.458;11.062;2023-06-10T12:25:11;4.90;;;3.20;;
76807;SDS011;65758;45.458;11.062;2023-06-10T12:27:40;5.10;;;3.50;;
76807;SDS011;65758;45.458;11.062;2023-06-10T12:30:20;6.70;;;3.90;;
76807;SDS011;65758;45.458;11.062;2023-06-10T12:32:48;6.10;;;4.00;;
76807;SDS011;65758;45.458;11.062;2023-06-10T12:35:20;4.70;;;3.60;;
76807;SDS011;65758;45.458;11.062;2023-06-10T12:38:01;5.30;;;3.60;;
76807;SDS011;65758;45.458;11.062;2023-06-10T12:40:34;6.50;;;3.80;;
76807;SDS011;65758;45.458;11.062;2023-06-10T12:43:03;6.30;;;4.00;;
76807;SDS011;65758;45.458;11.062;2023-06-10T12:48:08;5.00;;;3.70;;
76807;SDS011;65758;45.458;11.062;2023-06-10T12:50:41;4.60;;;4.20;;
76807;SDS011;65758;45.458;11.062;2023-06-10T12:53:09;7.00;;;4.50;;
76807;SDS011;65758;45.458;11.062;2023-06-10T12:55:40;4.90;;;4.40;;
76807;SDS011;65758;45.458;11.062;2023-06-10T12:58:06;5.00;;;3.50;;
76807;SDS011;65758;45.458;11.062;2023-06-10T13:00:34;5.40;;;4.10;;
76807;SDS011;65758;45.458;11.062;2023-06-10T13:03:02;6.50;;;4.20;;
76807;SDS011;65758;45.458;11.062;2023-06-10T13:05:32;5.40;;;4.50;;
76807;SDS011;65758;45.458;11.062;2023-06-10T13:12:20;7.00;;;4.40;;
76807;SDS011;65758;45.458;11.062;2023-06-10T13:19:21;6.00;;;4.40;;
76807;SDS011;65758;45.458;11.062;2023-06-10T13:21:51;8.50;;;4.60;;
76807;SDS011;65758;45.458;11.062;2023-06-10T13:24:19;6.50;;;4.60;;
76807;SDS011;65758;45.458;11.062;2023-06-10T13:26:47;6.30;;;3.90;;
76807;SDS011;65758;45.458;11.062;2023-06-10T13:29:14;5.70;;;4.30;;
76807;SDS011;65758;45.458;11.062;2023-06-10T13:31:41;6.00;;;4.40;;
76807;SDS011;65758;45.458;11.062;2023-06-10T13:34:09;5.10;;;3.90;;
76807;SDS011;65758;45.458;11.062;2023-06-10T13:36:36;7.80;;;5.00;;
76807;SDS011;65758;45.458;11.062;2023-06-10T13:39:03;6.20;;;4.70;;
76807;SDS011;65758;45.458;11.062;2023-06-10T13:41:29;5.40;;;4.70;;
76807;SDS011;65758;45.458;11.062;2023-06-10T13:43:56;10.10;;;4.90;;
76807;SDS011;65758;45.458;11.062;2023-06-10T13:46:23;6.00;;;4.90;;
76807;SDS011;65758;45.458;11.062;2023-06-10T13:48:50;6.30;;;5.00;;
76807;SDS011;65758;45.458;11.062;2023-06-10T13:51:17;6.80;;;4.70;;
76807;SDS011;65758;45.458;11.062;2023-06-10T13:53:44;8.40;;;4.90;;
76807;SDS011;65758;45.458;11.062;2023-06-10T13:56:12;5.50;;;4.80;;
76807;SDS011;65758;45.458;11.062;2023-06-10T13:58:40;7.70;;;4.90;;
76807;SDS011;65758;45.458;11.062;2023-06-10T14:01:09;7.80;;;5.60;;
76807;SDS011;65758;45.458;11.062;2023-06-10T14:03:36;6.90;;;4.80;;
76807;SDS011;65758;45.458;11.062;2023-06-10T14:06:04;7.70;;;4.40;;
76807;SDS011;65758;45.458;11.062;2023-06-10T14:08:30;5.20;;;4.50;;
76807;SDS011;65758;45.458;11.062;2023-06-10T14:10:57;7.20;;;4.60;;
76807;SDS011;65758;45.458;11.062;2023-06-10T14:13:25;6.90;;;4.40;;
76807;SDS011;65758;45.458;11.062;2023-06-10T14:15:52;12.10;;;4.70;;
76807;SDS011;65758;45.458;11.062;2023-06-10T14:18:19;6.80;;;4.30;;
76807;SDS011;65758;45.458;11.062;2023-06-10T14:20:46;7.20;;;4.40;;
76807;SDS011;65758;45.458;11.062;2023-06-10T14:23:13;5.40;;;4.70;;
76807;SDS011;65758;45.458;11.062;2023-06-10T14:25:40;7.80;;;4.60;;
76807;SDS011;65758;45.458;11.062;2023-06-10T14:28:06;5.50;;;4.10;;
76807;SDS011;65758;45.458;11.062;2023-06-10T14:30:33;7.70;;;4.60;;
76807;SDS011;65758;45.458;11.062;2023-06-10T14:33:00;6.60;;;4.30;;
76807;SDS011;65758;45.458;11.062;2023-06-10T14:35:27;9.10;;;5.20;;
76807;SDS011;65758;45.458;11.062;2023-06-10T14:37:54;6.10;;;4.60;;
76807;SDS011;65758;45.458;11.062;2023-06-10T14:40:21;6.00;;;4.20;;
76807;SDS011;65758;45.458;11.062;2023-06-10T14:42:49;5.60;;;4.30;;
76807;SDS011;65758;45.458;11.062;2023-06-10T14:45:16;7.40;;;5.10;;
76807;SDS011;65758;45.458;11.062;2023-06-10T14:47:43;7.30;;;5.10;;
76807;SDS011;65758;45.458;11.062;2023-06-10T14:50:10;4.90;;;4.30;;
76807;SDS011;65758;45.458;11.062;2023-06-10T14:52:36;6.70;;;5.50;;
76807;SDS011;65758;45.458;11.062;2023-06-10T14:55:03;5.60;;;4.40;;
76807;SDS011;65758;45.458;11.062;2023-06-10T14:57:30;6.90;;;4.90;;
76807;SDS011;65758;45.458;11.062;2023-06-10T15:00:02;6.80;;;4.30;;
76807;SDS011;65758;45.458;11.062;2023-06-10T15:02:29;7.70;;;4.00;;
76807;SDS011;65758;45.458;11.062;2023-06-10T15:04:56;7.00;;;4.20;;
76807;SDS011;65758;45.458;11.062;2023-06-10T15:07:23;7.00;;;4.80;;
76807;SDS011;65758;45.458;11.062;2023-06-10T15:09:49;7.60;;;5.10;;
76807;SDS011;65758;45.458;11.062;2023-06-10T15:12:16;5.60;;;4.70;;
76807;SDS011;65758;45.458;11.062;2023-06-10T15:14:43;5.20;;;3.90;;
76807;SDS011;65758;45.458;11.062;2023-06-10T15:17:10;5.50;;;4.30;;
76807;SDS011;65758;45.458;11.062;2023-06-10T15:19:37;7.90;;;4.50;;
76807;SDS011;65758;45.458;11.062;2023-06-10T15:22:04;6.90;;;4.90;;
76807;SDS011;65758;45.458;11.062;2023-06-10T15:24:30;6.40;;;4.50;;
76807;SDS011;65758;45.458;11.062;2023-06-10T15:26:57;8.80;;;4.70;;
76807;SDS011;65758;45.458;11.062;2023-06-10T15:29:24;7.00;;;4.50;;
76807;SDS011;65758;45.458;11.062;2023-06-10T15:36:04;5.90;;;4.10;;
76807;SDS011;65758;45.458;11.062;2023-06-10T15:38:32;6.70;;;3.90;;
76807;SDS011;65758;45.458;11.062;2023-06-10T15:40:59;6.30;;;4.10;;
76807;SDS011;65758;45.458;11.062;2023-06-10T15:43:26;7.50;;;4.20;;
76807;SDS011;65758;45.458;11.062;2023-06-10T15:45:53;4.50;;;3.90;;
76807;SDS011;65758;45.458;11.062;2023-06-10T15:48:20;6.90;;;3.80;;
76807;SDS011;65758;45.458;11.062;2023-06-10T15:50:47;6.00;;;4.40;;
76807;SDS011;65758;45.458;11.062;2023-06-10T15:53:13;3.70;;;2.80;;
76807;SDS011;65758;45.458;11.062;2023-06-10T15:55:41;4.40;;;3.20;;
76807;SDS011;65758;45.458;11.062;2023-06-10T15:58:07;4.40;;;3.20;;
76807;SDS011;65758;45.458;11.062;2023-06-10T16:00:34;3.10;;;2.80;;
76807;SDS011;65758;45.458;11.062;2023-06-10T16:03:01;4.60;;;3.10;;
76807;SDS011;65758;45.458;11.062;2023-06-10T16:05:29;4.10;;;2.60;;
76807;SDS011;65758;45.458;11.062;2023-06-10T16:07:56;5.00;;;2.90;;
76807;SDS011;65758;45.458;11.062;2023-06-10T16:10:28;3.40;;;2.90;;
76807;SDS011;65758;45.458;11.062;2023-06-10T16:12:55;4.80;;;3.00;;
76807;SDS011;65758;45.458;11.062;2023-06-10T16:15:21;2.70;;;2.50;;
76807;SDS011;65758;45.458;11.062;2023-06-10T16:17:48;5.40;;;2.60;;
76807;SDS011;65758;45.458;11.062;2023-06-10T16:20:15;3.70;;;2.70;;
76807;SDS011;65758;45.458;11.062;2023-06-10T16:22:42;3.60;;;2.90;;
76807;SDS011;65758;45.458;11.062;2023-06-10T16:25:09;5.10;;;2.70;;
76807;SDS011;65758;45.458;11.062;2023-06-10T16:27:36;3.90;;;2.30;;
76807;SDS011;65758;45.458;11.062;2023-06-10T16:30:03;5.30;;;2.80;;
76807;SDS011;65758;45.458;11.062;2023-06-10T16:32:31;4.30;;;2.70;;